Time;durP1;ratioP1;P1;durP2;ratioP2;P2;SDS_P1;SDS_P2;PMS_P1;PMS_P2;Temp;Humidity;BMP_temperature;BMP_pressure;BME280_temperature;BME280_humidity;BME280_pressure;Samples;Min_cycle;Max_cycle;Signal;HPM_P1;HPM_P2
2022/12/21 00:01:24;;;;;;;31.10;17.30;;;;;;;1.62;81.41;100485.45;1729398;79;21505;-76
2022/12/21 00:03:55;;;;;;;30.30;17.90;;;;;;;1.60;81.62;100489.74;1750900;80;20995;-76
2022/12/21 00:06:25;;;;;;;32.13;16.03;;;;;;;1.60;81.69;100483.28;1777030;80;21062;-77
2022/12/21 00:08:55;;;;;;;34.67;16.33;;;;;;;1.58;81.71;100483.73;1777533;80;21114;-76
2022/12/21 00:11:24;;;;;;;30.53;16.20;;;;;;;1.56;81.85;100494.05;1764965;80;21474;-76
2022/12/21 00:13:54;;;;;;;29.80;16.07;;;;;;;1.50;81.54;100490.18;1768526;80;21477;-76
2022/12/21 00:16:24;;;;;;;36.42;18.52;;;;;;;1.44;81.67;100482.42;1777043;80;21628;-77
2022/12/21 00:18:51;;;;;;;31.52;17.35;;;;;;;1.41;81.70;100481.53;1777439;80;21560;-76
2022/12/21 00:21:22;;;;;;;33.93;17.43;;;;;;;1.41;81.97;100492.72;1739193;79;21109;-76
2022/12/21 00:23:52;;;;;;;29.17;16.03;;;;;;;1.39;81.93;100502.65;1761913;80;20992;-76
2022/12/21 00:26:22;;;;;;;31.67;16.37;;;;;;;1.37;81.99;100494.88;1771774;80;21501;-76
2022/12/21 00:28:52;;;;;;;27.35;15.15;;;;;;;1.32;82.06;100497.87;1777384;80;20943;-76
2022/12/21 00:31:29;;;;;;;37.20;17.32;;;;;;;1.26;81.87;100494.00;1777154;79;21450;-76
2022/12/21 00:33:57;;;;;;;40.50;19.53;;;;;;;1.22;82.11;100495.72;1766474;80;21107;-76
2022/12/21 00:36:27;;;;;;;40.67;19.63;;;;;;;1.24;82.38;100491.84;1776914;79;21011;-76
2022/12/21 00:38:56;;;;;;;46.77;23.63;;;;;;;1.26;82.54;100483.67;1764158;79;20991;-77
2022/12/21 00:41:26;;;;;;;39.57;20.53;;;;;;;1.28;82.70;100489.28;1753426;80;20999;-76
2022/12/21 00:43:54;;;;;;;38.17;19.40;;;;;;;1.32;82.72;100495.30;1777488;80;21470;-76
2022/12/21 00:46:30;;;;;;;33.23;17.40;;;;;;;1.32;82.71;100491.42;1776958;80;21142;-76
2022/12/21 00:49:04;;;;;;;43.33;20.10;;;;;;;1.36;82.90;100498.34;1766372;80;20988;-76
2022/12/21 00:51:33;;;;;;;42.17;20.37;;;;;;;1.40;82.97;100494.89;1778136;80;20987;-77
2022/12/21 00:54:01;;;;;;;42.97;20.13;;;;;;;1.43;82.96;100496.62;1756168;80;20948;-76
2022/12/21 00:56:28;;;;;;;41.87;18.93;;;;;;;1.47;83.02;100496.63;1766248;80;21003;-76
2022/12/21 00:58:55;;;;;;;38.10;20.67;;;;;;;1.48;83.00;100498.78;1782769;80;21138;-76
2022/12/21 01:01:30;;;;;;;33.23;16.20;;;;;;;1.53;83.08;100486.73;1782426;80;21446;-76
2022/12/21 01:04:01;;;;;;;32.37;17.53;;;;;;;1.56;83.03;100486.30;1782858;80;21003;-76
2022/12/21 01:06:33;;;;;;;36.23;17.20;;;;;;;1.61;83.09;100472.52;1782512;80;21047;-74
2022/12/21 01:09:04;;;;;;;32.07;16.13;;;;;;;1.55;82.96;100456.58;1782801;80;20999;-75
2022/12/21 01:11:32;;;;;;;30.50;16.40;;;;;;;1.54;83.02;100454.87;1782742;80;21124;-75
2022/12/21 01:13:59;;;;;;;28.83;15.50;;;;;;;1.55;83.14;100455.28;1782706;80;21485;-75
2022/12/21 01:16:31;;;;;;;29.93;16.37;;;;;;;1.59;83.22;100451.86;1782386;80;21007;-75
2022/12/21 01:19:01;;;;;;;30.32;15.75;;;;;;;1.64;83.22;100437.66;1782889;80;21538;-75
2022/12/21 01:21:30;;;;;;;30.00;16.23;;;;;;;1.69;83.26;100450.13;1779581;80;21160;-75
2022/12/21 01:23:59;;;;;;;30.60;15.43;;;;;;;1.70;83.21;100439.80;1750950;80;21794;-75
2022/12/21 01:26:27;;;;;;;28.47;15.10;;;;;;;1.72;83.25;100430.34;1762422;80;21487;-75
2022/12/21 01:28:54;;;;;;;29.50;15.03;;;;;;;1.74;83.25;100423.86;1782821;80;21501;-75
2022/12/21 01:31:21;;;;;;;27.10;15.90;;;;;;;1.76;83.30;100413.09;1782488;80;21466;-75
2022/12/21 01:33:48;;;;;;;34.80;18.13;;;;;;;1.77;83.21;100416.09;1776010;80;21092;-75
2022/12/21 01:36:17;;;;;;;35.87;17.70;;;;;;;1.78;83.31;100421.72;1741197;80;21125;-75
2022/12/21 01:38:46;;;;;;;30.30;15.37;;;;;;;1.79;83.26;100424.72;1751205;80;21546;-75
2022/12/21 01:41:20;;;;;;;32.70;17.20;;;;;;;1.79;83.28;100422.14;1768098;80;21443;-75
2022/12/21 01:43:54;;;;;;;32.00;16.13;;;;;;;1.82;83.30;100426.01;1741994;80;21028;-75
2022/12/21 01:46:39;;;;;;;34.37;17.57;;;;;;;1.83;83.25;100439.38;1742304;80;21010;-75
2022/12/21 01:49:23;;;;;;;32.70;16.33;;;;;;;1.84;83.29;100435.92;1781168;80;21966;-75
2022/12/21 01:52:04;;;;;;;33.57;17.03;;;;;;;1.85;83.32;100430.31;1778016;80;21490;-76
2022/12/21 01:54:45;;;;;;;33.33;17.50;;;;;;;1.88;83.40;100440.20;1734903;80;20974;-76
2022/12/21 01:57:14;;;;;;;30.83;16.97;;;;;;;1.89;83.36;100434.64;1769681;81;21482;-75
2022/12/21 01:59:51;;;;;;;33.77;17.27;;;;;;;1.89;83.28;100439.80;1771689;81;21034;-75
2022/12/21 02:02:26;;;;;;;31.53;16.97;;;;;;;1.89;83.29;100439.37;1771127;80;21896;-76
2022/12/21 02:04:55;;;;;;;31.00;16.83;;;;;;;1.89;83.28;100439.80;1735239;80;20889;-76
2022/12/21 02:07:22;;;;;;;32.50;16.63;;;;;;;1.88;83.29;100436.77;1744000;80;21055;-76
2022/12/21 02:09:50;;;;;;;30.07;16.60;;;;;;;1.89;83.31;100443.24;1777799;80;21474;-76
2022/12/21 02:12:18;;;;;;;32.00;17.43;;;;;;;1.92;83.28;100446.26;1758090;81;22063;-76
2022/12/21 02:14:48;;;;;;;34.60;17.67;;;;;;;1.92;83.33;100448.41;1741169;81;21111;-76
2022/12/21 02:17:42;;;;;;;31.37;16.07;;;;;;;1.93;83.31;100447.97;1716960;81;21014;-76
2022/12/21 02:20:38;;;;;;;30.13;15.43;;;;;;;1.95;83.34;100448.84;1761311;81;21049;-76
2022/12/21 02:23:41;;;;;;;31.67;16.63;;;;;;;1.96;83.29;100444.09;1763795;81;21009;-76
2022/12/21 02:26:17;;;;;;;33.83;16.20;;;;;;;1.96;83.23;100435.04;1769823;81;21410;-77
2022/12/21 02:29:10;;;;;;;30.83;16.73;;;;;;;1.97;83.25;100440.22;1729496;80;21083;-76
2022/12/21 02:31:48;;;;;;;31.10;17.13;;;;;;;1.97;83.32;100441.52;1772053;80;21023;-76
2022/12/21 02:34:36;;;;;;;35.33;17.13;;;;;;;2.00;83.33;100447.11;1767395;80;21414;-76
2022/12/21 02:37:14;;;;;;;31.33;17.10;;;;;;;2.03;83.37;100450.13;1751335;80;21012;-77
2022/12/21 02:40:10;;;;;;;31.30;15.73;;;;;;;2.04;83.32;100443.64;1756216;80;21072;-77
2022/12/21 02:46:00;;;;;;;31.27;16.37;;;;;;;2.03;83.16;100446.25;1779931;80;21046;-76
2022/12/21 02:48:53;;;;;;;31.90;16.70;;;;;;;2.05;83.21;100434.16;1779779;80;22154;-77
2022/12/21 02:51:26;;;;;;;32.67;16.77;;;;;;;2.04;83.23;100421.67;1776534;80;21016;-77
2022/12/21 02:53:54;;;;;;;34.07;17.37;;;;;;;2.06;83.22;100416.52;1766620;80;20956;-77
2022/12/21 02:56:21;;;;;;;36.63;17.30;;;;;;;2.05;83.21;100407.90;1745610;80;21313;-77
2022/12/21 02:58:48;;;;;;;29.83;15.33;;;;;;;2.07;83.18;100410.47;1776878;79;21007;-76
2022/12/21 03:01:25;;;;;;;34.70;16.73;;;;;;;2.07;83.17;100403.56;1766126;80;21043;-76
2022/12/21 03:04:10;;;;;;;30.97;15.63;;;;;;;2.08;83.15;100400.13;1768948;80;21461;-77
2022/12/21 03:06:58;;;;;;;30.50;16.50;;;;;;;2.09;83.27;100390.64;1761032;80;21015;-77
2022/12/21 03:10:03;;;;;;;39.47;20.33;;;;;;;2.12;83.28;100391.92;1760988;80;21152;-76
2022/12/21 03:12:54;;;;;;;37.27;18.27;;;;;;;2.12;83.33;100382.87;1770318;80;21469;-77
2022/12/21 03:15:27;;;;;;;;;;;;;;;2.13;83.42;100391.05;1779300;80;21355;-77
2022/12/21 03:18:02;;;;;;;35.33;16.77;;;;;;;2.11;83.46;100374.70;1776548;80;20158;-77
2022/12/21 03:20:41;;;;;;;34.13;17.47;;;;;;;2.10;83.55;100380.72;1777130;80;21015;-77
2022/12/21 03:23:22;;;;;;;35.53;17.30;;;;;;;2.11;83.66;100385.91;1763573;80;21372;-75
2022/12/21 03:25:54;;;;;;;32.77;17.87;;;;;;;2.12;83.58;100402.27;1774859;80;21036;-77
2022/12/21 03:28:27;;;;;;;30.30;16.37;;;;;;;2.11;83.56;100391.52;1760401;80;21064;-77
2022/12/21 03:30:58;;;;;;;31.60;16.73;;;;;;;2.12;83.61;100386.76;1765963;80;21465;-77
2022/12/21 03:33:30;;;;;;;31.73;16.53;;;;;;;2.12;83.59;100385.47;1775321;80;21290;-77
2022/12/21 03:36:12;;;;;;;29.87;15.97;;;;;;;2.13;83.69;100375.54;1774869;80;21101;-77
2022/12/21 03:38:47;;;;;;;31.10;17.03;;;;;;;2.16;83.64;100384.58;1772936;80;21489;-77
2022/12/21 03:41:34;;;;;;;33.10;17.77;;;;;;;2.17;83.62;100388.91;1770545;80;21053;-77
2022/12/21 03:44:06;;;;;;;31.37;17.10;;;;;;;2.17;83.55;100388.46;1745570;80;21015;-77
2022/12/21 03:46:41;;;;;;;28.20;16.63;;;;;;;2.18;83.53;100375.95;1773128;80;21580;-77
2022/12/21 03:49:25;;;;;;;31.73;16.13;;;;;;;2.20;83.61;100388.89;1741894;80;21062;-77
2022/12/21 03:51:56;;;;;;;32.13;16.43;;;;;;;2.22;83.65;100391.05;1748770;80;21013;-77
2022/12/21 03:54:43;;;;;;;28.33;15.77;;;;;;;2.21;83.65;100395.33;1772742;80;21003;-77
2022/12/21 03:57:11;;;;;;;29.57;15.80;;;;;;;2.22;83.69;100387.17;1776125;80;20889;-77
2022/12/21 03:59:43;;;;;;;27.90;16.20;;;;;;;2.22;83.73;100383.28;1765391;80;21007;-77
2022/12/21 04:02:21;;;;;;;29.47;16.03;;;;;;;2.24;83.68;100385.41;1776301;80;21893;-77
2022/12/21 04:05:18;;;;;;;29.60;16.03;;;;;;;2.25;83.61;100384.56;1775746;80;21052;-77
2022/12/21 04:07:48;;;;;;;28.83;15.57;;;;;;;2.24;83.63;100380.23;1735252;80;21377;-77
2022/12/21 04:10:19;;;;;;;32.17;16.25;;;;;;;2.25;83.67;100374.66;1774269;80;21534;-77
2022/12/21 04:12:46;;;;;;;36.03;19.07;;;;;;;2.26;83.65;100369.91;1774896;80;21551;-77
2022/12/21 04:15:18;;;;;;;34.73;18.43;;;;;;;2.26;83.59;100364.30;1776252;80;21510;-79
2022/12/21 04:17:49;;;;;;;33.50;17.33;;;;;;;2.26;83.59;100356.97;1777867;80;20979;-77
2022/12/21 04:20:23;;;;;;;33.02;17.62;;;;;;;2.27;83.60;100353.51;1774573;80;21094;-77
2022/12/21 04:28:30;;;;;;;30.50;17.33;;;;;;;2.27;83.63;100347.90;1751393;80;21993;-78
2022/12/21 04:31:00;;;;;;;32.00;16.67;;;;;;;2.29;83.67;100341.44;1776137;80;20988;-77
2022/12/21 04:33:30;;;;;;;33.08;16.62;;;;;;;2.29;83.55;100346.61;1765978;80;21036;-77
2022/12/21 04:38:45;;;;;;;29.30;15.83;;;;;;;2.27;83.47;100337.55;1757481;80;20999;-77
2022/12/21 04:41:12;;;;;;;32.20;16.27;;;;;;;2.28;83.50;100340.59;1775820;80;21622;-77
2022/12/21 04:43:40;;;;;;;31.70;16.80;;;;;;;2.29;83.50;100337.56;1756980;80;20980;-77
2022/12/21 04:46:14;;;;;;;29.83;16.00;;;;;;;2.29;83.45;100331.95;1776991;80;20999;-77
2022/12/21 04:48:44;;;;;;;25.87;15.80;;;;;;;2.30;83.45;100338.86;1775760;80;21052;-77
2022/12/21 04:51:19;;;;;;;28.93;15.47;;;;;;;2.32;83.47;100337.11;1775053;80;20988;-77
2022/12/21 04:53:47;;;;;;;26.73;15.47;;;;;;;2.32;83.47;100338.40;1766782;80;21184;-78
2022/12/21 04:56:16;;;;;;;28.80;14.90;;;;;;;2.33;83.45;100334.97;1773602;80;21075;-77
2022/12/21 04:58:44;;;;;;;42.63;23.30;;;;;;;2.35;83.41;100329.77;1757713;80;20978;-77
2022/12/21 05:01:16;;;;;;;32.53;16.97;;;;;;;2.34;83.34;100324.18;1775034;80;21035;-77
2022/12/21 05:03:44;;;;;;;29.53;15.90;;;;;;;2.35;83.40;100324.16;1776497;80;21012;-77
2022/12/21 05:06:13;;;;;;;26.90;14.03;;;;;;;2.36;83.37;100331.07;1777332;80;21122;-77
2022/12/21 05:08:40;;;;;;;26.40;14.07;;;;;;;2.36;83.40;100333.66;1777114;80;21549;-78
2022/12/21 05:11:12;;;;;;;31.43;15.27;;;;;;;2.37;83.44;100327.60;1771201;80;21005;-77
2022/12/21 05:13:40;;;;;;;29.73;14.87;;;;;;;2.40;83.50;100330.61;1744629;80;20992;-77
2022/12/21 05:16:11;;;;;;;29.63;16.53;;;;;;;2.39;83.32;100330.20;1772374;80;21449;-77
2022/12/21 05:18:37;;;;;;;;;;;;;;;2.39;83.35;100317.27;1767123;80;21309;-77
2022/12/21 05:21:05;;;;;;;31.37;15.27;;;;;;;2.39;83.32;100316.83;1764062;80;20465;-77
2022/12/21 05:23:33;;;;;;;31.07;16.57;;;;;;;2.38;83.35;100315.12;1775298;80;21015;-77
2022/12/21 05:26:04;;;;;;;29.80;15.83;;;;;;;2.39;83.36;100315.97;1773865;80;21044;-77
2022/12/21 05:28:31;;;;;;;29.00;15.40;;;;;;;2.39;83.31;100314.67;1773495;80;21505;-77
2022/12/21 05:30:58;;;;;;;28.43;15.00;;;;;;;2.38;83.25;100307.36;1777529;80;21138;-77
2022/12/21 05:33:26;;;;;;;29.77;14.97;;;;;;;2.38;83.27;100314.23;1764081;80;21092;-77
2022/12/21 05:35:52;;;;;;;34.17;16.40;;;;;;;2.40;83.26;100308.63;1761863;80;21502;-77
2022/12/21 05:38:20;;;;;;;97.37;39.00;;;;;;;2.41;83.20;100314.21;1771609;80;22021;-77
2022/12/21 05:40:49;;;;;;;64.47;31.37;;;;;;;2.42;83.20;100308.19;1774309;80;21470;-77
2022/12/21 05:43:17;;;;;;;38.73;18.20;;;;;;;2.44;83.20;100311.20;1744251;81;21090;-77
2022/12/21 05:45:45;;;;;;;36.60;17.63;;;;;;;2.45;83.18;100312.91;1761660;80;21015;-77
2022/12/21 05:48:12;;;;;;;33.50;15.87;;;;;;;2.47;83.17;100312.91;1773810;80;21063;-77
2022/12/21 05:50:40;;;;;;;33.03;17.83;;;;;;;2.49;83.15;100303.39;1777613;80;20996;-77
2022/12/21 05:53:09;;;;;;;77.50;35.93;;;;;;;2.50;83.07;100299.95;1778143;80;21489;-77
2022/12/21 05:55:36;;;;;;;32.00;17.33;;;;;;;2.51;83.04;100300.81;1782261;80;21280;-77
2022/12/21 05:58:03;;;;;;;37.57;17.93;;;;;;;2.52;83.00;100298.64;1769447;80;21468;-77
2022/12/21 06:00:31;;;;;;;32.77;16.53;;;;;;;2.52;82.97;100292.16;1780479;80;21058;-77
2022/12/21 06:02:58;;;;;;;52.80;26.50;;;;;;;2.53;82.97;100293.47;1778503;80;21057;-77
2022/12/21 06:05:27;;;;;;;54.17;27.03;;;;;;;2.53;82.89;100289.59;1779815;80;20972;-77
2022/12/21 06:07:54;;;;;;;39.80;18.07;;;;;;;2.54;82.85;100286.12;1784260;80;21944;-77
2022/12/21 06:10:21;;;;;;;27.00;15.13;;;;;;;2.55;82.87;100281.39;1784422;80;20999;-77
2022/12/21 06:12:48;;;;;;;31.20;14.87;;;;;;;2.56;82.86;100283.53;1786195;80;21016;-77
2022/12/21 06:15:15;;;;;;;30.50;15.90;;;;;;;2.56;82.83;100288.71;1783106;80;21023;-77
2022/12/21 06:17:42;;;;;;;28.70;14.13;;;;;;;2.56;82.81;100286.12;1783498;80;21541;-77
2022/12/21 06:20:11;;;;;;;28.27;13.93;;;;;;;2.56;82.76;100290.86;1785570;80;21055;-77
2022/12/21 06:22:40;;;;;;;25.80;13.80;;;;;;;2.57;82.74;100286.53;1781640;80;21252;-77
2022/12/21 06:25:08;;;;;;;26.27;14.33;;;;;;;2.57;82.77;100282.22;1772356;80;21050;-77
2022/12/21 06:27:35;;;;;;;30.80;15.73;;;;;;;2.60;82.72;100296.86;1780227;80;21020;-77
2022/12/21 06:30:02;;;;;;;26.67;14.60;;;;;;;2.62;82.73;100292.55;1783673;80;21264;-77
2022/12/21 06:32:29;;;;;;;23.23;13.50;;;;;;;2.61;82.70;100298.16;1785346;80;21082;-77
2022/12/21 06:34:56;;;;;;;33.60;16.63;;;;;;;2.63;82.68;100303.31;1786463;80;21469;-77
2022/12/21 06:37:24;;;;;;;27.23;13.07;;;;;;;2.66;82.68;100309.75;1782976;80;21842;-77
2022/12/21 06:39:51;;;;;;;26.80;14.07;;;;;;;2.66;82.66;100318.41;1782693;80;20996;-77
2022/12/21 06:42:18;;;;;;;31.03;15.60;;;;;;;2.70;82.67;100315.80;1772311;80;21040;-77
2022/12/21 06:44:46;;;;;;;30.83;15.03;;;;;;;2.71;82.57;100319.65;1768644;80;21128;-77
2022/12/21 06:47:13;;;;;;;25.90;13.17;;;;;;;2.71;82.58;100320.94;1782600;80;20976;-77
2022/12/21 06:49:41;;;;;;;30.27;15.10;;;;;;;2.73;82.52;100328.27;1782943;80;20912;-77
2022/12/21 06:52:08;;;;;;;20.77;12.13;;;;;;;2.75;82.52;100331.72;1782615;80;21524;-77
2022/12/21 06:54:35;;;;;;;25.37;12.23;;;;;;;2.77;82.54;100333.88;1775749;80;21011;-80
2022/12/21 06:57:02;;;;;;;24.83;12.97;;;;;;;2.80;82.50;100332.97;1772119;80;21915;-75
2022/12/21 06:59:30;;;;;;;25.83;14.00;;;;;;;2.82;82.38;100328.64;1780416;80;21062;-75
2022/12/21 07:01:57;;;;;;;26.30;13.77;;;;;;;2.84;82.37;100323.03;1777924;80;21528;-74
2022/12/21 07:04:24;;;;;;;26.60;13.43;;;;;;;2.83;82.28;100320.88;1774879;80;21017;-75
2022/12/21 07:06:51;;;;;;;33.00;15.90;;;;;;;2.84;82.28;100325.18;1778363;80;20999;-77
2022/12/21 07:09:18;;;;;;;31.90;15.63;;;;;;;2.85;82.24;100321.70;1782480;80;21094;-77
2022/12/21 07:11:46;;;;;;;53.40;20.93;;;;;;;2.86;82.24;100321.30;1775053;80;22158;-82
2022/12/21 07:14:14;;;;;;;66.87;24.37;;;;;;;2.86;82.22;100324.75;1776190;80;20946;-81
2022/12/21 07:16:42;;;;;;;201.40;60.00;;;;;;;2.87;82.23;100332.92;1779674;80;20999;-81
2022/12/21 07:19:10;;;;;;;231.50;64.47;;;;;;;2.89;82.22;100340.25;1777736;80;21070;-82
2022/12/21 07:21:36;;;;;;;142.87;38.57;;;;;;;2.92;82.22;100338.52;1778770;80;21069;-76
2022/12/21 07:24:04;;;;;;;76.43;26.70;;;;;;;2.94;82.16;100341.53;1777112;78;21018;-78
2022/12/21 07:26:32;;;;;;;80.43;25.47;;;;;;;2.93;82.08;100329.43;1779803;80;21476;-77
2022/12/21 07:28:59;;;;;;;158.67;47.63;;;;;;;2.94;82.10;100328.98;1777915;78;21010;-78
2022/12/21 07:31:27;;;;;;;517.93;136.03;;;;;;;2.94;82.13;100326.41;1782514;80;21176;-77
2022/12/21 07:33:55;;;;;;;217.27;55.97;;;;;;;2.95;82.15;100326.84;1774927;80;21177;-77
2022/12/21 07:36:22;;;;;;;47.17;18.40;;;;;;;2.94;82.06;100335.46;1785182;80;20931;-77
2022/12/21 07:38:49;;;;;;;39.07;16.43;;;;;;;2.95;82.22;100341.09;1778454;80;21026;-77
2022/12/21 07:41:17;;;;;;;24.57;12.63;;;;;;;2.95;82.26;100336.76;1779948;78;21002;-76
2022/12/21 07:43:45;;;;;;;26.37;12.97;;;;;;;2.98;82.36;100348.39;1779165;80;21711;-79
2022/12/21 07:46:18;;;;;;;25.10;13.43;;;;;;;3.01;82.42;100354.84;1778435;80;21991;-77
2022/12/21 07:48:45;;;;;;;40.87;16.53;;;;;;;3.03;82.34;100350.95;1780391;80;21133;-77
2022/12/21 07:51:13;;;;;;;44.07;17.93;;;;;;;3.05;82.34;100350.52;1779700;80;21010;-76
2022/12/21 07:53:40;;;;;;;32.90;15.57;;;;;;;3.08;82.43;100350.49;1779974;78;21018;-77
2022/12/21 07:56:17;;;;;;;106.80;38.03;;;;;;;3.12;82.30;100350.88;1765785;79;21017;-82
2022/12/21 07:58:45;;;;;;;111.00;29.30;;;;;;;3.14;82.32;100346.55;1765951;79;21953;-75
2022/12/21 08:01:15;;;;;;;41.07;15.87;;;;;;;3.16;82.24;100352.59;1766914;81;21022;-79
2022/12/21 08:03:44;;;;;;;36.50;17.35;;;;;;;3.14;82.18;100347.84;1766434;79;21010;-77
2022/12/21 08:06:13;;;;;;;39.18;17.55;;;;;;;3.13;82.23;100350.88;1770211;79;20915;-79
2022/12/21 08:08:41;;;;;;;45.40;19.80;;;;;;;3.12;82.23;100346.55;1770702;79;21006;-78
2022/12/21 08:11:15;;;;;;;26.73;14.57;;;;;;;3.13;82.29;100346.11;1766041;80;21941;-78
2022/12/21 08:13:44;;;;;;;33.47;16.53;;;;;;;3.14;82.31;100345.27;1771492;80;21046;-78
2022/12/21 08:16:15;;;;;;;30.23;14.93;;;;;;;3.16;82.29;100338.76;1771065;80;22105;-78
2022/12/21 08:18:43;;;;;;;25.47;14.33;;;;;;;3.16;82.28;100338.76;1770740;79;21000;-78
2022/12/21 08:21:10;;;;;;;26.80;13.97;;;;;;;3.17;82.38;100336.17;1765345;79;21022;-78
2022/12/21 08:23:38;;;;;;;26.33;13.43;;;;;;;3.19;82.42;100337.02;1771526;80;21786;-78
2022/12/21 08:26:09;;;;;;;31.47;14.97;;;;;;;3.22;82.41;100329.67;1767753;79;21466;-78
2022/12/21 08:28:37;;;;;;;26.93;13.93;;;;;;;3.26;82.44;100323.58;1771711;79;21007;-78
2022/12/21 08:31:08;;;;;;;28.37;14.37;;;;;;;3.28;82.38;100318.80;1770763;79;20997;-78
2022/12/21 08:33:37;;;;;;;28.50;14.20;;;;;;;3.32;82.39;100312.71;1765258;80;21198;-78
2022/12/21 08:36:11;;;;;;;32.77;16.57;;;;;;;3.37;82.34;100312.69;1775321;80;21490;-78
2022/12/21 08:38:38;;;;;;;197.23;63.87;;;;;;;3.42;82.34;100309.62;1777510;80;21565;-78
2022/12/21 08:41:06;;;;;;;53.07;23.80;;;;;;;3.45;82.21;100310.88;1774006;80;20866;-78
2022/12/21 08:43:37;;;;;;;32.40;14.73;;;;;;;3.48;82.23;100316.03;1777430;80;21011;-78
2022/12/21 08:46:06;;;;;;;29.20;14.57;;;;;;;3.53;82.21;100312.11;1759589;80;21267;-78
2022/12/21 08:48:35;;;;;;;26.00;12.17;;;;;;;3.57;82.18;100317.67;1746756;80;21118;-78
2022/12/21 08:51:03;;;;;;;28.93;15.73;;;;;;;3.62;82.18;100311.16;1755519;80;21012;-79
2022/12/21 08:53:31;;;;;;;31.17;15.03;;;;;;;3.67;82.13;100315.42;1773552;80;21043;-78
2022/12/21 08:55:58;;;;;;;24.80;12.30;;;;;;;3.73;82.07;100316.64;1768339;80;21010;-78
2022/12/21 08:58:25;;;;;;;22.17;12.37;;;;;;;3.79;82.07;100319.61;1772066;80;20999;-79
2022/12/21 09:00:54;;;;;;;20.50;11.97;;;;;;;3.85;82.04;100323.88;1777307;80;21604;-78
2022/12/21 09:03:23;;;;;;;24.97;12.63;;;;;;;3.91;81.98;100316.05;1761841;80;20921;-79
2022/12/21 09:05:57;;;;;;;23.00;11.53;;;;;;;3.96;81.94;100320.72;1736187;80;21502;-79
2022/12/21 09:08:25;;;;;;;25.83;13.70;;;;;;;4.01;81.91;100320.23;1769767;80;21007;-79
2022/12/21 09:11:09;;;;;;;24.23;13.47;;;;;;;4.06;81.84;100324.08;1762727;81;21003;-78
2022/12/21 09:13:37;;;;;;;25.40;13.80;;;;;;;4.10;81.74;100324.45;1733036;81;21069;-79
2022/12/21 09:16:20;;;;;;;19.27;12.43;;;;;;;4.08;81.63;100326.23;1734199;80;21016;-78
2022/12/21 09:18:49;;;;;;;22.57;12.47;;;;;;;4.09;81.65;100321.45;1769710;80;21014;-79
2022/12/21 09:21:19;;;;;;;23.67;12.57;;;;;;;4.12;81.62;100317.52;1769887;80;21094;-79
2022/12/21 09:23:46;;;;;;;;;;;;;;;4.12;81.56;100312.33;1770747;80;21050;-79
2022/12/21 09:26:14;;;;;;;23.80;12.90;;;;;;;4.12;81.52;100308.44;1770588;80;21115;-79
2022/12/21 09:28:42;;;;;;;24.23;12.63;;;;;;;4.12;81.62;100310.59;1771356;80;21525;-78
2022/12/21 09:31:19;;;;;;;26.23;13.50;;;;;;;4.15;81.65;100309.70;1770600;80;21031;-78
2022/12/21 09:33:46;;;;;;;24.03;13.20;;;;;;;4.17;81.66;100314.44;1768174;79;21007;-79
2022/12/21 09:36:15;;;;;;;26.33;14.13;;;;;;;4.18;81.57;100310.95;1767533;80;21014;-81
2022/12/21 09:38:42;;;;;;;25.50;15.27;;;;;;;4.20;81.58;100313.95;1767166;80;21177;-80
2022/12/21 09:41:32;;;;;;;26.37;14.20;;;;;;;4.24;81.63;100308.31;1767393;81;21564;-79
2022/12/21 09:44:29;;;;;;;26.30;14.50;;;;;;;4.24;81.62;100308.31;1772881;80;26895;-80
2022/12/21 09:47:00;;;;;;;28.03;14.77;;;;;;;4.24;81.62;100305.27;1766985;80;21027;-83
2022/12/21 09:49:42;;;;;;;26.50;14.43;;;;;;;4.25;81.68;100301.78;1762377;80;21027;-78
2022/12/21 09:52:20;;;;;;;26.60;14.87;;;;;;;4.27;81.79;100305.67;1760164;80;21128;-78
2022/12/21 09:55:07;;;;;;;34.43;17.70;;;;;;;4.28;81.90;100309.12;1765421;80;21062;-78
2022/12/21 09:57:35;;;;;;;26.83;15.40;;;;;;;4.29;82.03;100310.38;1761241;81;21083;-77
2022/12/21 10:00:08;;;;;;;27.37;15.00;;;;;;;4.30;82.19;100309.97;1762362;80;21285;-77
2022/12/21 10:02:59;;;;;;;28.67;15.70;;;;;;;4.29;82.16;100305.64;1763252;80;21343;-77
2022/12/21 10:05:53;;;;;;;27.03;14.80;;;;;;;4.28;82.27;100310.42;1767090;80;21998;-75
2022/12/21 10:08:48;;;;;;;28.37;15.00;;;;;;;4.26;82.25;100305.23;1763591;81;21027;-82
2022/12/21 10:11:26;;;;;;;25.77;14.83;;;;;;;4.25;82.42;100303.53;1760622;80;21031;-83
2022/12/21 10:14:08;;;;;;;27.93;15.53;;;;;;;4.23;82.55;100303.98;1761352;81;20999;-77
2022/12/21 10:16:46;;;;;;;26.80;14.97;;;;;;;4.21;82.66;100292.34;1761021;81;21448;-74
2022/12/21 10:19:27;;;;;;;24.53;13.80;;;;;;;4.19;82.77;100301.02;1765225;81;21222;-81
2022/12/21 10:22:27;;;;;;;27.70;15.50;;;;;;;4.17;83.04;100299.72;1765307;80;20939;-82
2022/12/21 10:24:59;;;;;;;27.17;15.07;;;;;;;4.15;83.15;100297.58;1760099;80;21524;-77
2022/12/21 10:27:50;;;;;;;32.67;15.23;;;;;;;4.12;83.44;100293.73;1761111;81;21044;-77
2022/12/21 10:30:18;;;;;;;27.80;15.87;;;;;;;4.08;83.59;100291.22;1767104;81;21047;-74
2022/12/21 10:32:49;;;;;;;30.60;15.20;;;;;;;4.04;83.91;100289.08;1761250;80;21189;-79
2022/12/21 10:35:36;;;;;;;31.23;16.60;;;;;;;4.02;84.20;100285.66;1759924;81;21015;-84
2022/12/21 10:38:17;;;;;;;28.67;15.93;;;;;;;3.96;84.41;100285.30;1768102;81;21450;-76
2022/12/21 10:40:54;;;;;;;28.37;16.67;;;;;;;3.89;84.62;100288.83;1768171;81;22025;-73
2022/12/21 10:43:22;;;;;;;33.13;15.80;;;;;;;3.84;85.00;100287.16;1762246;81;21124;-73
2022/12/21 10:45:49;;;;;;;28.67;15.83;;;;;;;3.81;85.44;100284.16;1769204;80;21120;-74
2022/12/21 10:48:17;;;;;;;27.20;15.57;;;;;;;3.78;85.56;100284.20;1766951;81;21485;-75
2022/12/21 10:50:47;;;;;;;29.87;16.53;;;;;;;3.76;85.84;100280.77;1768222;80;21011;-74
2022/12/21 10:53:27;;;;;;;28.10;16.07;;;;;;;3.71;85.81;100276.06;1762838;80;21028;-73
2022/12/21 10:55:58;;;;;;;41.50;22.70;;;;;;;3.66;86.03;100280.02;1765290;80;21019;-73
2022/12/21 10:58:36;;;;;;;33.77;19.23;;;;;;;3.62;86.41;100267.95;1779525;80;21853;-73
2022/12/21 11:01:07;;;;;;;36.17;18.77;;;;;;;3.63;86.69;100273.98;1772736;80;21062;-74
2022/12/21 11:03:39;;;;;;;30.67;16.23;;;;;;;3.62;86.79;100267.95;1771065;80;20998;-80
2022/12/21 11:06:19;;;;;;;29.67;16.00;;;;;;;3.62;87.07;100271.84;1768224;80;21588;-77
2022/12/21 11:08:50;;;;;;;28.42;16.60;;;;;;;3.64;87.30;100270.54;1775706;80;21046;-76
2022/12/21 11:11:37;;;;;;;28.63;16.70;;;;;;;3.65;87.47;100278.28;1767473;80;21129;-77
2022/12/21 11:14:14;;;;;;;29.70;17.27;;;;;;;3.66;87.63;100273.95;1768950;80;20928;-79
2022/12/21 11:16:42;;;;;;;32.65;17.85;;;;;;;3.63;87.59;100268.39;1772504;80;21014;-77
2022/12/21 11:19:13;;;;;;;28.97;16.40;;;;;;;3.65;88.01;100267.91;1776410;80;21039;-76
2022/12/21 11:21:52;;;;;;;32.17;18.07;;;;;;;3.63;87.84;100267.09;1776308;80;21022;-75
2022/12/21 11:24:27;;;;;;;41.10;21.03;;;;;;;3.64;88.13;100265.36;1769466;80;21109;-82
2022/12/21 11:26:59;;;;;;;32.17;17.53;;;;;;;3.65;88.41;100262.73;1775331;80;21508;-80
2022/12/21 11:29:43;;;;;;;42.40;21.07;;;;;;;3.68;88.45;100260.55;1769984;80;21516;-77
2022/12/21 11:32:12;;;;;;;38.83;20.60;;;;;;;3.66;88.59;100254.52;1770222;80;20995;-80
2022/12/21 11:34:55;;;;;;;36.07;19.87;;;;;;;3.68;88.75;100255.36;1771332;80;21018;-77
2022/12/21 11:37:37;;;;;;;30.97;18.07;;;;;;;3.68;88.82;100247.14;1767472;80;21128;-77
2022/12/21 11:40:16;;;;;;;32.00;18.93;;;;;;;3.70;88.93;100252.32;1768780;80;21253;-77
2022/12/21 11:43:06;;;;;;;29.47;17.27;;;;;;;3.71;89.00;100250.99;1771438;80;21442;-77
2022/12/21 11:45:59;;;;;;;34.27;19.82;;;;;;;3.72;89.01;100245.39;1774997;80;21039;-85
2022/12/21 11:48:47;;;;;;;33.53;18.53;;;;;;;3.70;88.96;100245.39;1770000;80;21521;-78
2022/12/21 11:52:00;;;;;;;30.90;16.90;;;;;;;3.70;89.06;100249.73;1773627;80;21027;-74
2022/12/21 11:54:48;;;;;;;34.70;17.87;;;;;;;3.70;89.32;100244.10;1778227;80;21050;-76